Time;durP1;ratioP1;P1;durP2;ratioP2;P2;SDS_P1;SDS_P2;PMS_P1;PMS_P2;Temp;Humidity;BMP_temperature;BMP_pressure;BME280_temperature;BME280_humidity;BME280_pressure;Samples;Min_cycle;Max_cycle;Signal;HPM_P1;HPM_P2
2021/03/24 00:02:06;;;;;;;6.60;4.23;;;;;;;3.39;58.86;94140.47;4975049;28;20318;-73
2021/03/24 00:04:32;;;;;;;7.27;4.60;;;;;;;3.44;59.42;94135.78;4959211;28;20177;-74
2021/03/24 00:06:57;;;;;;;5.27;4.20;;;;;;;3.43;59.75;94123.69;4992250;28;20180;-72
2021/03/24 00:09:23;;;;;;;5.37;4.57;;;;;;;3.25;59.82;94121.44;4974725;28;20185;-74
2021/03/24 00:11:48;;;;;;;7.93;4.40;;;;;;;3.24;59.69;94119.88;4992029;28;20170;-72
2021/03/24 00:14:14;;;;;;;7.43;5.10;;;;;;;3.27;60.02;94125.31;4992410;28;20174;-72
2021/03/24 00:16:39;;;;;;;7.63;4.87;;;;;;;3.19;60.09;94120.81;4974278;28;20232;-71
2021/03/24 00:19:04;;;;;;;5.63;4.27;;;;;;;3.28;59.56;94115.53;4958936;28;20174;-71
2021/03/24 00:21:30;;;;;;;10.10;4.40;;;;;;;3.17;60.22;94117.75;4974910;28;20200;-72
2021/03/24 00:23:55;;;;;;;7.00;4.63;;;;;;;3.17;59.98;94123.78;4958065;28;20595;-72
2021/03/24 00:26:21;;;;;;;5.20;4.60;;;;;;;3.33;58.99;94116.13;4992168;28;20174;-72
2021/03/24 00:28:46;;;;;;;6.57;4.70;;;;;;;3.37;60.98;94111.78;4974623;28;20243;-72
2021/03/24 00:31:12;;;;;;;7.10;4.57;;;;;;;3.50;59.99;94119.78;4992203;28;20253;-72
2021/03/24 00:33:37;;;;;;;7.00;4.70;;;;;;;3.38;59.76;94113.31;4992081;28;20248;-72
2021/03/24 00:36:03;;;;;;;5.60;3.73;;;;;;;3.35;59.90;94121.06;4977368;28;20201;-71
2021/03/24 00:38:29;;;;;;;7.73;4.40;;;;;;;3.22;59.17;94107.00;4978329;28;20627;-72
2021/03/24 00:40:56;;;;;;;5.87;4.30;;;;;;;3.19;59.14;94116.31;4996168;28;20258;-71
2021/03/24 00:43:22;;;;;;;8.48;3.70;;;;;;;3.21;59.74;94120.53;4962334;28;20169;-73
2021/03/24 00:45:48;;;;;;;10.20;4.33;;;;;;;3.48;59.90;94127.22;4978814;28;20280;-71
2021/03/24 00:48:39;;;;;;;9.30;4.73;;;;;;;3.31;60.96;94131.50;4996031;28;20661;-74
2021/03/24 00:51:06;;;;;;;9.88;4.38;;;;;;;3.06;61.98;94124.44;4992258;28;20579;-75
2021/03/24 00:53:32;;;;;;;7.40;4.32;;;;;;;2.81;64.97;94129.50;4978507;28;20181;-72
2021/03/24 00:55:57;;;;;;;7.07;4.47;;;;;;;2.81;66.08;94132.13;4945942;28;20236;-73
2021/03/24 00:58:23;;;;;;;9.20;5.27;;;;;;;2.74;66.78;94125.78;4995658;28;20189;-72
2021/03/24 01:00:50;;;;;;;8.67;5.40;;;;;;;2.70;67.87;94122.25;4995915;28;20177;-73
2021/03/24 01:03:15;;;;;;;9.35;4.97;;;;;;;2.80;67.40;94127.16;4978400;28;20181;-72
2021/03/24 01:05:45;;;;;;;7.57;5.03;;;;;;;2.48;68.40;94125.84;4978133;28;20174;-74
2021/03/24 01:08:13;;;;;;;9.18;5.00;;;;;;;2.57;68.30;94124.72;4978896;28;20696;-75
2021/03/24 01:10:39;;;;;;;7.07;5.18;;;;;;;2.73;68.29;94118.97;4978050;28;20269;-72
2021/03/24 01:13:04;;;;;;;7.37;4.80;;;;;;;2.69;67.61;94089.03;4995580;28;20181;-73
2021/03/24 01:15:30;;;;;;;6.07;4.53;;;;;;;2.94;67.46;94111.16;4977936;28;20524;-72
2021/03/24 01:17:56;;;;;;;6.25;4.25;;;;;;;2.85;67.31;94095.34;4978220;28;20264;-74
2021/03/24 01:20:26;;;;;;;11.00;4.90;;;;;;;2.91;66.50;94096.72;4995294;28;20189;-71
2021/03/24 01:22:56;;;;;;;6.60;4.43;;;;;;;2.95;65.78;94095.00;4961515;28;20190;-72
2021/03/24 01:25:22;;;;;;;7.80;4.80;;;;;;;2.91;65.94;94086.94;4977964;28;20221;-72
2021/03/24 01:27:47;;;;;;;7.90;4.97;;;;;;;3.04;65.23;94079.94;4977551;28;20662;-72
2021/03/24 01:30:14;;;;;;;5.77;4.60;;;;;;;2.83;65.11;94068.53;4977794;28;20292;-73
2021/03/24 01:32:39;;;;;;;8.32;5.47;;;;;;;2.74;65.49;94076.47;4995158;28;20178;-72
2021/03/24 01:35:06;;;;;;;5.73;4.60;;;;;;;2.53;65.08;94071.09;4977733;28;20193;-73
2021/03/24 01:37:32;;;;;;;7.85;5.47;;;;;;;2.88;64.86;94077.03;4961614;28;20711;-72
2021/03/24 01:39:57;;;;;;;6.50;4.53;;;;;;;2.73;64.83;94079.41;4977694;28;20185;-74
2021/03/24 01:42:23;;;;;;;10.43;5.47;;;;;;;2.84;65.15;94085.91;4994576;28;20549;-72
2021/03/24 01:45:14;;;;;;;7.23;5.37;;;;;;;2.80;64.52;94069.91;4977740;28;20181;-72
2021/03/24 01:47:40;;;;;;;7.57;5.22;;;;;;;2.60;64.99;94068.75;4964681;28;20189;-72
2021/03/24 01:50:20;;;;;;;6.97;5.43;;;;;;;2.84;65.18;94059.53;4961450;28;20660;-72
2021/03/24 01:52:46;;;;;;;9.63;6.30;;;;;;;2.72;64.99;94064.69;4961997;28;20293;-72
2021/03/24 01:55:11;;;;;;;9.67;6.03;;;;;;;2.68;66.02;94063.75;4977196;28;20669;-72
2021/03/24 01:57:37;;;;;;;10.30;6.33;;;;;;;2.49;66.30;94062.28;4976113;28;20255;-71
2021/03/24 02:00:09;;;;;;;9.43;6.33;;;;;;;2.57;66.86;94060.69;4944948;28;20190;-73
2021/03/24 02:02:36;;;;;;;9.55;5.95;;;;;;;2.51;66.16;94048.78;4993571;28;20249;-75
2021/03/24 02:05:01;;;;;;;11.52;7.07;;;;;;;2.65;67.26;94054.63;4977009;28;20277;-72
2021/03/24 02:07:57;;;;;;;10.90;6.77;;;;;;;2.71;67.04;94052.59;4976417;28;20257;-73
2021/03/24 02:10:33;;;;;;;8.13;5.75;;;;;;;2.82;66.25;94046.66;4979330;28;20169;-72
2021/03/24 02:13:15;;;;;;;10.98;7.32;;;;;;;2.52;66.86;94063.50;4994054;28;20178;-72
2021/03/24 02:15:51;;;;;;;10.13;6.28;;;;;;;2.63;66.09;94038.34;4977170;28;20281;-72
2021/03/24 02:18:17;;;;;;;12.55;6.95;;;;;;;2.73;65.73;94053.81;4961896;28;20207;-72
2021/03/24 02:20:49;;;;;;;9.63;6.70;;;;;;;2.65;65.72;94046.72;4976478;28;20178;-72
2021/03/24 02:23:22;;;;;;;11.35;6.38;;;;;;;2.63;65.48;94059.44;4961479;28;20565;-73
2021/03/24 02:25:59;;;;;;;12.90;7.15;;;;;;;2.73;64.76;94059.09;4943348;28;20867;-72
2021/03/24 02:28:25;;;;;;;11.10;6.68;;;;;;;2.51;65.38;94061.94;4960905;28;20209;-72
2021/03/24 02:30:50;;;;;;;11.00;6.87;;;;;;;2.70;65.32;94054.47;4959715;28;20189;-71
2021/03/24 02:33:21;;;;;;;13.00;7.47;;;;;;;3.01;64.67;94040.22;4993776;28;20193;-70
2021/03/24 02:35:49;;;;;;;10.20;7.22;;;;;;;2.77;65.11;94041.56;4960386;28;20178;-72
2021/03/24 02:38:15;;;;;;;12.70;7.57;;;;;;;2.56;65.51;94049.38;4961011;28;20232;-70
2021/03/24 02:40:41;;;;;;;8.07;6.37;;;;;;;2.67;66.10;94031.38;4960312;28;20173;-70
2021/03/24 02:43:07;;;;;;;11.75;7.95;;;;;;;2.80;65.09;94038.28;4960460;28;20185;-72
2021/03/24 02:45:34;;;;;;;10.80;6.50;;;;;;;2.88;64.91;94036.72;4960367;28;20574;-74
2021/03/24 02:48:03;;;;;;;10.40;6.97;;;;;;;3.01;64.68;94037.59;4993872;28;20174;-72
2021/03/24 02:50:29;;;;;;;9.45;6.75;;;;;;;2.83;64.87;94036.91;4960515;28;20186;-72
2021/03/24 02:52:54;;;;;;;11.57;6.93;;;;;;;2.96;65.14;94045.69;4976576;28;20236;-72
2021/03/24 02:55:20;;;;;;;11.07;6.70;;;;;;;2.90;65.09;94037.16;4944172;28;20184;-72
2021/03/24 02:57:46;;;;;;;13.57;7.53;;;;;;;2.97;64.70;94031.41;4959423;28;20200;-70
2021/03/24 03:00:14;;;;;;;12.60;7.07;;;;;;;2.77;65.15;94033.66;4976277;28;20208;-70
2021/03/24 03:02:41;;;;;;;10.45;6.72;;;;;;;2.72;65.45;94041.75;4993300;28;20645;-72
2021/03/24 03:05:08;;;;;;;12.63;7.85;;;;;;;2.69;65.77;94046.84;4958628;28;20222;-70
2021/03/24 03:07:38;;;;;;;14.90;7.43;;;;;;;2.80;65.25;94037.50;4976163;28;20568;-70
2021/03/24 03:10:06;;;;;;;10.90;7.40;;;;;;;2.86;65.40;94041.53;4944049;28;20188;-69
2021/03/24 03:12:48;;;;;;;9.38;6.95;;;;;;;2.82;65.58;94043.25;4992882;28;20174;-70
2021/03/24 03:15:27;;;;;;;11.38;7.60;;;;;;;2.76;65.55;94037.38;4961104;28;20181;-74
2021/03/24 03:17:56;;;;;;;10.82;7.50;;;;;;;2.47;65.80;94045.22;4960140;28;20209;-73
2021/03/24 03:20:23;;;;;;;13.60;8.00;;;;;;;2.36;67.21;94045.56;4960222;28;20174;-70
2021/03/24 03:22:59;;;;;;;7.82;6.55;;;;;;;2.60;66.55;94041.63;4974839;28;20619;-72
2021/03/24 03:25:33;;;;;;;12.35;7.07;;;;;;;2.63;66.51;94044.38;4959413;28;20229;-73
2021/03/24 03:28:00;;;;;;;11.02;7.53;;;;;;;2.82;66.83;94051.94;4959595;28;20177;-74
2021/03/24 03:30:28;;;;;;;11.07;7.25;;;;;;;2.54;67.95;94045.53;4959840;28;20169;-70
2021/03/24 03:32:55;;;;;;;15.65;7.72;;;;;;;2.31;70.64;94043.09;4943389;28;20221;-72
2021/03/24 03:35:21;;;;;;;12.70;8.23;;;;;;;2.28;70.61;94048.97;4959670;28;20170;-70
2021/03/24 03:37:48;;;;;;;12.90;8.38;;;;;;;2.16;71.78;94030.41;4959133;28;20208;-71
2021/03/24 03:40:15;;;;;;;14.85;8.23;;;;;;;2.36;71.18;94044.78;4975479;28;20178;-71
2021/03/24 03:42:40;;;;;;;14.70;9.05;;;;;;;2.05;71.42;94016.00;4943194;28;20629;-70
2021/03/24 03:45:07;;;;;;;14.73;8.37;;;;;;;2.38;71.13;94042.59;4957715;28;20174;-73
2021/03/24 03:47:32;;;;;;;13.63;7.88;;;;;;;2.45;70.18;94027.09;4976452;28;20174;-73
2021/03/24 03:49:58;;;;;;;15.17;8.37;;;;;;;2.52;70.25;94032.63;4975181;28;20193;-70
2021/03/24 03:52:31;;;;;;;11.83;8.50;;;;;;;2.64;69.68;94034.66;4974898;28;20166;-70
2021/03/24 03:55:17;;;;;;;14.48;7.97;;;;;;;2.05;71.30;94035.22;4983492;28;20185;-70
2021/03/24 03:57:53;;;;;;;15.30;8.48;;;;;;;2.35;69.97;94036.09;4979106;28;20276;-71
2021/03/24 04:00:29;;;;;;;14.52;8.48;;;;;;;2.54;69.09;94037.63;4956944;28;20244;-71
2021/03/24 04:03:17;;;;;;;17.58;10.75;;;;;;;2.74;68.61;94059.88;4991852;28;20645;-71
2021/03/24 04:05:47;;;;;;;16.90;8.50;;;;;;;2.63;67.66;94039.13;4968739;28;20176;-71
2021/03/24 04:08:23;;;;;;;14.32;7.93;;;;;;;2.60;68.27;94050.31;4959299;28;20181;-71
2021/03/24 04:10:50;;;;;;;14.75;8.88;;;;;;;2.59;67.48;94053.25;4957837;28;20185;-71
2021/03/24 04:13:16;;;;;;;17.75;8.18;;;;;;;2.53;67.58;94050.03;4958854;28;20170;-70
2021/03/24 04:15:41;;;;;;;12.80;8.37;;;;;;;2.26;67.76;94053.78;4958616;28;20174;-74
2021/03/24 04:18:10;;;;;;;13.30;8.50;;;;;;;2.32;67.38;94049.13;4991923;28;20182;-71
2021/03/24 04:20:35;;;;;;;17.58;9.45;;;;;;;2.19;67.88;94058.75;4958961;28;20158;-70
2021/03/24 04:23:01;;;;;;;16.77;8.30;;;;;;;2.22;67.97;94044.94;4958277;28;20170;-72
2021/03/24 04:25:31;;;;;;;13.73;8.87;;;;;;;2.37;67.35;94062.91;4970465;28;20236;-72
2021/03/24 04:27:57;;;;;;;13.02;8.18;;;;;;;2.39;67.75;94059.97;4975182;28;20316;-71
2021/03/24 04:30:27;;;;;;;15.10;8.37;;;;;;;2.28;67.87;94062.16;4958863;28;20182;-70
2021/03/24 04:32:52;;;;;;;11.07;6.95;;;;;;;2.21;68.17;94059.22;4975000;28;20209;-70
2021/03/24 04:35:19;;;;;;;15.17;9.37;;;;;;;2.38;67.96;94068.94;4974977;28;20178;-70
2021/03/24 04:37:46;;;;;;;17.92;9.35;;;;;;;2.43;67.01;94057.47;4974689;28;20205;-70
2021/03/24 04:40:15;;;;;;;15.45;8.95;;;;;;;2.54;67.43;94072.66;4958741;28;20239;-70
2021/03/24 04:43:07;;;;;;;14.43;8.52;;;;;;;2.49;66.86;94080.72;4991851;28;20644;-70
2021/03/24 04:45:39;;;;;;;15.02;8.68;;;;;;;2.36;67.94;94085.09;4968551;28;20189;-70
2021/03/24 04:48:09;;;;;;;13.95;8.00;;;;;;;2.13;69.65;94075.78;4959078;28;20174;-70
2021/03/24 04:50:44;;;;;;;15.00;8.50;;;;;;;2.13;70.08;94065.25;4958895;28;20209;-71
2021/03/24 04:53:11;;;;;;;17.55;9.55;;;;;;;2.24;70.73;94081.50;4958693;28;20559;-70
2021/03/24 04:55:37;;;;;;;21.35;9.60;;;;;;;2.36;69.51;94077.19;4958374;28;20708;-71
2021/03/24 04:58:03;;;;;;;13.57;8.93;;;;;;;2.34;70.02;94083.84;4974422;28;20177;-71
2021/03/24 05:00:35;;;;;;;15.45;9.00;;;;;;;2.18;69.29;94072.22;4973682;28;20285;-72
2021/03/24 05:03:06;;;;;;;16.60;9.48;;;;;;;2.44;69.49;94094.06;4958818;28;20631;-71
2021/03/24 05:05:31;;;;;;;16.05;9.18;;;;;;;2.38;69.14;94082.91;4974609;28;20202;-72
2021/03/24 05:08:18;;;;;;;15.50;10.10;;;;;;;2.09;70.53;94080.91;4958187;28;20193;-72
2021/03/24 05:10:43;;;;;;;16.45;9.75;;;;;;;2.24;70.74;94086.78;4975797;28;20595;-71
2021/03/24 05:13:28;;;;;;;13.83;9.63;;;;;;;2.54;69.69;94095.59;4973617;28;20189;-73
2021/03/24 05:16:01;;;;;;;20.98;10.68;;;;;;;2.35;69.44;94091.41;4958620;28;20169;-71
2021/03/24 05:18:26;;;;;;;13.48;8.75;;;;;;;2.14;70.35;94093.16;4974035;28;20185;-71
2021/03/24 05:21:21;;;;;;;14.27;9.50;;;;;;;2.30;69.87;94096.88;4958988;28;20174;-74
2021/03/24 05:23:47;;;;;;;12.55;9.15;;;;;;;2.24;69.37;94099.94;4964287;28;20256;-70
2021/03/24 05:26:33;;;;;;;18.17;10.03;;;;;;;2.26;70.26;94103.06;4993779;28;20166;-69
2021/03/24 05:29:01;;;;;;;13.27;8.88;;;;;;;2.18;70.53;94123.03;4992840;28;20178;-71
2021/03/24 05:31:28;;;;;;;13.98;8.88;;;;;;;2.09;71.61;94114.38;4993602;28;20412;-70
2021/03/24 05:33:59;;;;;;;13.20;8.90;;;;;;;2.07;71.80;94109.41;4993386;28;20630;-70
2021/03/24 05:36:34;;;;;;;18.63;10.23;;;;;;;2.37;71.64;94123.50;4993265;28;20275;-70
2021/03/24 05:39:36;;;;;;;17.92;9.65;;;;;;;2.30;71.51;94125.03;4991813;28;20216;-71
2021/03/24 05:42:28;;;;;;;13.10;8.55;;;;;;;2.12;71.52;94105.84;4920090;28;20708;-70
2021/03/24 05:45:12;;;;;;;16.35;9.13;;;;;;;2.50;71.16;94134.19;4955955;28;20312;-71
2021/03/24 05:48:15;;;;;;;16.40;9.35;;;;;;;2.63;70.15;94141.13;4957121;28;20667;-72
2021/03/24 05:50:42;;;;;;;17.15;8.65;;;;;;;2.56;71.10;94154.78;4950618;28;20194;-75
2021/03/24 05:53:19;;;;;;;22.27;8.10;;;;;;;2.68;70.99;94151.53;4936354;29;20202;-72
2021/03/24 05:56:02;;;;;;;13.52;7.15;;;;;;;2.71;70.19;94165.97;4933724;29;20246;-72
2021/03/24 05:58:51;;;;;;;12.45;8.02;;;;;;;2.44;71.09;94172.31;4937563;29;20641;-71
2021/03/24 06:01:27;;;;;;;15.27;8.00;;;;;;;2.57;71.02;94179.28;4953723;29;20270;-75
2021/03/24 06:04:07;;;;;;;16.17;8.30;;;;;;;2.54;70.36;94175.44;4937421;29;20194;-71
2021/03/24 06:06:44;;;;;;;14.98;7.93;;;;;;;2.61;69.46;94194.19;4953614;29;20241;-75
2021/03/24 06:09:35;;;;;;;12.48;7.97;;;;;;;2.39;70.62;94197.75;4937327;29;20183;-74
2021/03/24 06:12:21;;;;;;;13.40;8.68;;;;;;;2.52;71.20;94206.56;4953248;29;20641;-71
2021/03/24 06:15:05;;;;;;;13.32;7.25;;;;;;;2.53;71.13;94183.66;4963496;28;20179;-72
2021/03/24 06:18:08;;;;;;;9.80;7.20;;;;;;;2.85;69.11;94208.72;4960298;28;20235;-74
2021/03/24 06:20:39;;;;;;;10.63;6.32;;;;;;;2.66;70.13;94219.59;4976675;28;20208;-71
2021/03/24 06:23:23;;;;;;;9.80;6.10;;;;;;;2.64;69.85;94229.69;4994173;28;20261;-71
2021/03/24 06:25:56;;;;;;;7.75;5.75;;;;;;;2.68;68.93;94233.25;4972586;28;20656;-70
2021/03/24 06:28:30;;;;;;;10.75;4.85;;;;;;;2.75;68.49;94238.03;4974632;28;20209;-70
2021/03/24 06:31:20;;;;;;;12.40;4.57;;;;;;;2.51;69.04;94247.19;4960575;28;20165;-72
2021/03/24 06:34:20;;;;;;;4.05;3.35;;;;;;;2.37;68.68;94257.09;4980770;28;20179;-71
2021/03/24 06:37:04;;;;;;;6.10;3.63;;;;;;;2.45;68.66;94261.59;4962833;28;20213;-71
2021/03/24 06:39:40;;;;;;;8.55;4.82;;;;;;;2.69;68.55;94274.31;4996332;28;20170;-74
2021/03/24 06:42:26;;;;;;;4.65;3.65;;;;;;;2.72;68.41;94275.59;4984952;28;20166;-71
2021/03/24 06:45:30;;;;;;;4.30;3.13;;;;;;;2.84;67.30;94275.75;4992503;28;20228;-72
2021/03/24 06:48:34;;;;;;;3.38;2.70;;;;;;;2.70;67.15;94281.16;4960221;28;20193;-72
2021/03/24 06:51:06;;;;;;;5.70;2.63;;;;;;;2.47;64.48;94282.38;4977933;28;20202;-74
2021/03/24 06:54:08;;;;;;;3.28;2.40;;;;;;;2.71;65.36;94290.63;4992859;28;20209;-71
2021/03/24 06:56:43;;;;;;;10.50;2.05;;;;;;;3.05;63.33;94299.63;4974481;28;20228;-71
2021/03/24 06:59:17;;;;;;;1.52;1.42;;;;;;;2.92;62.79;94303.97;4975419;28;20223;-70
2021/03/24 07:01:49;;;;;;;1.63;1.52;;;;;;;2.97;58.69;94319.63;4992585;28;20207;-74
2021/03/24 07:04:53;;;;;;;2.25;1.83;;;;;;;2.78;58.96;94333.13;4992934;28;20162;-71
2021/03/24 07:07:25;;;;;;;2.10;1.55;;;;;;;2.78;57.91;94335.75;4978153;28;20172;-71
2021/03/24 07:09:50;;;;;;;2.00;1.83;;;;;;;2.81;57.23;94329.09;4974973;28;20177;-70
2021/03/24 07:12:37;;;;;;;1.80;1.70;;;;;;;2.83;56.63;94332.97;4992666;28;20235;-71
2021/03/24 07:15:15;;;;;;;2.67;1.75;;;;;;;3.13;55.95;94330.50;4972331;28;20255;-69
2021/03/24 07:18:01;;;;;;;2.83;1.52;;;;;;;3.40;54.28;94347.88;4958407;28;20213;-69
2021/03/24 07:20:45;;;;;;;1.73;1.60;;;;;;;3.47;53.81;94342.09;4992050;28;20178;-69
2021/03/24 07:23:28;;;;;;;1.75;1.52;;;;;;;3.53;53.66;94351.41;5005228;28;20173;-69
2021/03/24 07:26:25;;;;;;;1.83;1.73;;;;;;;3.10;53.95;94358.28;4972661;28;20226;-73
2021/03/24 07:29:05;;;;;;;1.85;1.67;;;;;;;3.04;53.28;94354.25;4958002;28;20179;-73
2021/03/24 07:32:07;;;;;;;2.53;1.50;;;;;;;2.86;53.70;94361.38;4972399;28;20163;-70
2021/03/24 07:34:59;;;;;;;1.98;1.70;;;;;;;2.59;56.03;94370.31;4955727;28;20177;-71
2021/03/24 07:37:27;;;;;;;1.67;1.40;;;;;;;2.30;56.20;94377.94;4971352;28;20249;-71
2021/03/24 07:40:08;;;;;;;1.60;1.50;;;;;;;2.61;56.71;94388.44;5002556;28;20611;-70
2021/03/24 07:43:18;;;;;;;2.03;1.83;;;;;;;2.54;55.48;94393.41;4968022;28;20182;-70
2021/03/24 07:45:59;;;;;;;2.92;2.15;;;;;;;2.70;56.13;94394.53;4976768;28;20172;-72
2021/03/24 07:48:42;;;;;;;3.25;2.20;;;;;;;2.51;55.32;94396.63;4957986;28;20728;-73
2021/03/24 07:51:16;;;;;;;3.45;2.45;;;;;;;2.53;55.72;94413.72;4991779;28;20185;-69
2021/03/24 07:54:00;;;;;;;6.55;3.30;;;;;;;2.53;55.09;94413.72;4974552;28;20549;-71
2021/03/24 07:56:38;;;;;;;3.55;2.28;;;;;;;2.54;54.90;94406.56;4992009;28;20209;-70
2021/03/24 07:59:47;;;;;;;4.07;2.50;;;;;;;2.61;54.28;94417.44;4995989;28;20623;-73
2021/03/24 08:02:46;;;;;;;3.08;2.42;;;;;;;2.60;54.03;94415.91;4952185;29;20278;-72
2021/03/24 08:05:32;;;;;;;3.33;2.70;;;;;;;2.77;52.56;94417.81;4937580;29;20555;-72
2021/03/24 08:08:16;;;;;;;5.50;2.33;;;;;;;2.71;54.58;94429.56;4934629;29;20627;-72
2021/03/24 08:11:16;;;;;;;2.22;2.00;;;;;;;2.71;53.50;94429.56;4950367;29;20174;-73
2021/03/24 08:13:58;;;;;;;3.03;2.25;;;;;;;2.85;54.06;94438.13;4874700;29;20666;-72
2021/03/24 08:16:39;;;;;;;3.22;1.60;;;;;;;2.12;52.51;94425.28;4845011;29;20261;-72
2021/03/24 08:19:34;;;;;;;3.33;1.70;;;;;;;2.26;53.40;94427.09;4868072;29;20204;-75
2021/03/24 08:22:35;;;;;;;4.70;2.30;;;;;;;2.51;53.85;94436.16;4879592;29;20701;-74
2021/03/24 08:25:36;;;;;;;3.85;2.05;;;;;;;2.61;52.07;94439.31;4874905;29;20224;-76
2021/03/24 08:28:10;;;;;;;2.55;2.00;;;;;;;2.57;51.64;94438.34;4875097;29;20624;-76
2021/03/24 08:30:44;;;;;;;2.63;2.42;;;;;;;2.53;53.85;94441.94;4874539;29;20188;-76
2021/03/24 08:33:22;;;;;;;3.08;2.20;;;;;;;2.46;53.36;94439.69;4896746;29;20323;-72
2021/03/24 08:35:50;;;;;;;2.30;2.00;;;;;;;2.67;52.70;94447.84;4896364;29;20213;-75
2021/03/24 08:38:23;;;;;;;3.28;2.53;;;;;;;2.85;51.75;94451.31;4912392;29;20660;-73
2021/03/24 08:41:02;;;;;;;1.98;1.70;;;;;;;2.74;53.77;94450.81;4896268;29;20607;-75
2021/03/24 08:43:48;;;;;;;1.65;1.55;;;;;;;2.84;54.00;94450.53;4896514;29;20220;-75
2021/03/24 08:46:31;;;;;;;2.22;2.00;;;;;;;2.53;52.58;94452.47;4912105;29;20172;-72
2021/03/24 08:48:58;;;;;;;2.50;2.30;;;;;;;2.95;52.16;94447.63;4896245;29;20192;-72
2021/03/24 08:51:41;;;;;;;2.85;2.20;;;;;;;2.97;53.28;94454.13;4956437;28;20660;-73
2021/03/24 08:54:22;;;;;;;3.60;2.22;;;;;;;2.99;53.49;94448.56;4990977;28;20176;-72
2021/03/24 08:56:52;;;;;;;2.47;2.17;;;;;;;2.95;52.89;94444.97;4993064;28;20197;-71
2021/03/24 08:59:42;;;;;;;2.28;2.03;;;;;;;3.54;54.20;94442.75;4977866;28;20217;-72
2021/03/24 09:02:20;;;;;;;2.67;2.03;;;;;;;3.16;51.82;94446.75;4977336;28;20197;-69
2021/03/24 09:05:08;;;;;;;5.15;3.20;;;;;;;3.17;52.66;94442.22;4977747;28;20181;-70
2021/03/24 09:07:52;;;;;;;4.20;2.80;;;;;;;3.41;52.41;94447.84;4994300;28;20637;-72
2021/03/24 09:10:23;;;;;;;4.47;2.53;;;;;;;2.95;55.01;94448.41;4977734;28;20185;-70
2021/03/24 09:13:13;;;;;;;6.60;3.83;;;;;;;3.25;52.55;94452.00;4976789;28;20975;-72
2021/03/24 09:16:00;;;;;;;6.57;3.10;;;;;;;3.28;51.91;94448.00;4994560;28;20192;-67
2021/03/24 09:18:32;;;;;;;6.88;3.45;;;;;;;3.27;52.80;94462.28;4883730;29;20337;-72
2021/03/24 09:21:15;;;;;;;8.43;5.63;;;;;;;3.21;51.84;94453.72;4868493;29;20733;-77
2021/03/24 09:24:18;;;;;;;4.15;3.10;;;;;;;2.91;53.60;94458.78;4883984;29;20184;-68
2021/03/24 09:27:21;;;;;;;2.53;2.30;;;;;;;2.64;54.23;94461.66;4915660;29;20191;-69
2021/03/24 09:29:52;;;;;;;6.35;3.30;;;;;;;2.80;51.58;94462.78;4915375;29;20267;-72
2021/03/24 09:32:32;;;;;;;8.88;4.93;;;;;;;2.53;53.17;94465.66;4914584;29;20184;-71
2021/03/24 09:35:28;;;;;;;7.53;3.42;;;;;;;2.84;50.74;94466.38;4885036;29;20655;-70
2021/03/24 09:38:10;;;;;;;3.10;2.35;;;;;;;2.91;49.14;94471.19;4901091;29;20239;-69
2021/03/24 09:40:41;;;;;;;2.92;2.25;;;;;;;2.82;49.63;94479.09;4899581;29;20575;-70
2021/03/24 09:43:30;;;;;;;3.67;2.38;;;;;;;2.95;49.40;94480.03;4884014;29;20192;-70
2021/03/24 09:46:08;;;;;;;1.73;1.63;;;;;;;2.91;49.21;94490.41;4900514;29;20204;-69
2021/03/24 09:48:58;;;;;;;4.72;2.50;;;;;;;2.84;48.03;94491.97;4899570;29;20184;-69
2021/03/24 09:51:25;;;;;;;3.88;2.65;;;;;;;2.55;48.75;94495.09;4915265;29;20180;-69
2021/03/24 09:53:51;;;;;;;8.75;3.50;;;;;;;2.28;48.29;94493.41;4883785;29;20196;-70
2021/03/24 09:56:20;;;;;;;5.27;2.63;;;;;;;2.65;48.42;94500.88;4945687;28;20333;-70
2021/03/24 09:58:54;;;;;;;2.65;2.25;;;;;;;2.62;48.09;94501.47;4957474;28;20228;-69
2021/03/24 10:01:27;;;;;;;3.45;2.40;;;;;;;2.81;48.96;94497.84;4957434;28;20171;-70
2021/03/24 10:04:16;;;;;;;6.45;3.03;;;;;;;2.77;49.35;94508.22;4956574;28;20305;-70
2021/03/24 10:07:03;;;;;;;4.55;2.20;;;;;;;2.33;50.31;94504.59;4974206;28;20221;-72
2021/03/24 10:09:52;;;;;;;3.10;2.40;;;;;;;2.43;50.48;94511.47;4958911;28;20600;-71
2021/03/24 10:12:19;;;;;;;4.45;1.92;;;;;;;2.56;50.35;94515.88;4957115;28;20202;-70
2021/03/24 10:14:51;;;;;;;4.75;2.22;;;;;;;2.60;50.20;94523.97;4974151;28;20701;-73
2021/03/24 10:17:25;;;;;;;4.88;2.92;;;;;;;2.47;51.12;94522.16;4974002;28;20694;-69
2021/03/24 10:20:16;;;;;;;6.35;3.80;;;;;;;2.67;49.82;94521.66;4957375;28;20198;-71
2021/03/24 10:22:46;;;;;;;4.85;2.72;;;;;;;2.53;51.88;94521.00;4958849;28;20202;-69
2021/03/24 10:25:20;;;;;;;7.97;2.78;;;;;;;2.58;49.92;94510.28;4966529;28;20245;-71
2021/03/24 10:27:49;;;;;;;5.47;2.83;;;;;;;2.53;51.27;94511.22;4973732;28;20254;-68
2021/03/24 10:30:14;;;;;;;5.70;2.15;;;;;;;2.85;50.89;94512.75;4972661;28;20162;-70
2021/03/24 10:32:44;;;;;;;2.40;2.20;;;;;;;2.95;51.68;94518.84;4973761;28;20233;-71
2021/03/24 10:35:25;;;;;;;2.28;2.08;;;;;;;3.16;50.85;94517.19;4956626;28;20629;-72
2021/03/24 10:38:12;;;;;;;7.47;2.72;;;;;;;2.91;51.15;94508.09;4973539;28;20224;-69
2021/03/24 10:40:40;;;;;;;4.15;1.77;;;;;;;3.04;46.16;94511.72;4972738;28;20257;-69
2021/03/24 10:43:18;;;;;;;7.70;2.53;;;;;;;3.07;46.69;94511.88;4972549;28;20173;-71
2021/03/24 10:45:50;;;;;;;1.98;1.52;;;;;;;3.20;47.02;94520.78;4971988;28;20277;-70
2021/03/24 10:48:21;;;;;;;3.53;2.30;;;;;;;3.18;45.75;94515.00;4973621;28;20546;-69
2021/03/24 10:51:05;;;;;;;4.03;2.70;;;;;;;3.38;45.07;94517.09;4973522;28;20178;-69
2021/03/24 10:53:31;;;;;;;4.50;2.40;;;;;;;3.29;44.16;94505.72;4973549;28;20178;-70
2021/03/24 10:56:10;;;;;;;8.03;2.23;;;;;;;3.33;44.44;94513.81;4971902;28;20265;-69
2021/03/24 10:58:53;;;;;;;3.08;2.20;;;;;;;3.17;43.93;94510.84;4973582;28;20166;-68
2021/03/24 11:01:31;;;;;;;2.22;1.70;;;;;;;3.27;44.30;94515.06;4972172;28;20173;-68
2021/03/24 11:04:21;;;;;;;8.80;2.95;;;;;;;3.36;45.96;94502.63;4973377;28;20185;-68
2021/03/24 11:07:01;;;;;;;2.20;1.67;;;;;;;3.47;45.94;94503.13;4973412;28;20262;-69
2021/03/24 11:09:37;;;;;;;2.10;1.88;;;;;;;3.38;43.94;94508.41;4971901;28;20162;-68
2021/03/24 11:12:04;;;;;;;4.05;2.03;;;;;;;3.50;46.22;94508.56;4972041;28;20177;-69
2021/03/24 11:15:02;;;;;;;3.78;2.42;;;;;;;3.24;46.15;94508.50;4971859;28;20668;-69
2021/03/24 11:17:31;;;;;;;5.72;2.28;;;;;;;3.32;45.23;94510.41;4972529;28;20217;-69
2021/03/24 11:20:05;;;;;;;2.53;2.20;;;;;;;3.25;44.42;94510.06;4971775;28;20178;-71
2021/03/24 11:22:54;;;;;;;4.10;2.25;;;;;;;3.09;44.93;94514.22;4971693;28;20245;-70
2021/03/24 11:25:25;;;;;;;4.75;2.95;;;;;;;3.36;42.08;94505.28;4971582;28;20226;-71
2021/03/24 11:27:57;;;;;;;3.80;2.45;;;;;;;3.52;42.91;94510.88;4956053;28;20387;-70
2021/03/24 11:30:34;;;;;;;4.40;2.30;;;;;;;3.56;45.01;94503.91;4972820;28;20183;-70
2021/03/24 11:33:05;;;;;;;4.10;2.47;;;;;;;3.23;44.64;94508.81;4957678;28;20190;-70
2021/03/24 11:35:30;;;;;;;4.28;2.03;;;;;;;3.69;41.64;94497.69;4972471;28;20170;-70
2021/03/24 11:38:02;;;;;;;4.57;2.77;;;;;;;3.82;43.61;94502.06;4973295;28;20288;-69
2021/03/24 11:40:36;;;;;;;3.35;2.22;;;;;;;3.66;41.68;94493.84;4972180;28;20181;-70
2021/03/24 11:43:05;;;;;;;2.10;1.90;;;;;;;3.78;44.20;94489.78;4941069;28;20180;-69
2021/03/24 11:45:31;;;;;;;3.45;2.20;;;;;;;4.49;66.57;94477.72;4956381;28;20194;-70
2021/03/24 11:48:09;;;;;;;6.27;2.50;;;;;;;5.67;40.37;94486.75;4955752;28;20186;-70
2021/03/24 11:50:55;;;;;;;5.15;1.98;;;;;;;5.04;39.57;94487.44;4973363;28;20178;-70
2021/03/24 11:53:21;;;;;;;4.97;2.20;;;;;;;5.07;41.44;94490.56;4972876;28;20252;-69
2021/03/24 11:55:52;;;;;;;2.20;1.77;;;;;;;5.45;40.26;94491.28;4973207;28;20258;-70
2021/03/24 11:58:33;;;;;;;3.43;2.10;;;;;;;5.47;39.81;94480.34;4972834;28;20234;-69
2021/03/24 12:01:25;;;;;;;3.97;2.00;;;;;;;5.56;40.19;94491.66;4955979;28;20453;-70
2021/03/24 12:04:06;;;;;;;4.63;2.10;;;;;;;7.21;64.39;94484.75;4967259;28;20432;-70
2021/03/24 12:06:50;;;;;;;3.43;2.37;;;;;;;7.42;48.06;94482.75;4971416;28;20813;-71
2021/03/24 12:09:23;;;;;;;1.50;1.40;;;;;;;7.89;47.49;94474.97;4973127;28;20413;-72
2021/03/24 12:11:49;;;;;;;2.87;1.80;;;;;;;8.47;38.92;94469.31;4940331;28;20429;-72
2021/03/24 12:14:20;;;;;;;2.13;1.73;;;;;;;8.60;38.79;94467.41;4971715;28;20422;-71
2021/03/24 12:16:56;;;;;;;2.63;1.83;;;;;;;8.33;38.32;94463.63;4939215;28;20249;-70
2021/03/24 12:19:32;;;;;;;5.97;1.90;;;;;;;8.77;37.02;94476.94;4956134;28;20422;-68